createdAt,value
2019-02-04T00:00:33.065Z,74.40
2019-02-04T00:03:00.492Z,74.50
2019-02-04T00:05:27.097Z,74.50
2019-02-04T00:07:53.399Z,74.60
2019-02-04T00:10:19.743Z,74.60
2019-02-04T00:12:46.497Z,74.60
2019-02-04T00:15:13.196Z,74.60
2019-02-04T00:17:40.081Z,74.60
2019-02-04T00:20:08.873Z,74.60
2019-02-04T00:22:35.327Z,74.60
2019-02-04T00:25:01.623Z,74.60
2019-02-04T00:27:28.051Z,74.60
2019-02-04T00:29:54.569Z,74.60
2019-02-04T00:32:20.796Z,74.60
2019-02-04T00:34:47.842Z,74.70
2019-02-04T00:37:14.133Z,74.80
2019-02-04T00:39:40.438Z,74.80
2019-02-04T00:42:07.009Z,75.00
2019-02-04T00:44:33.301Z,75.00
2019-02-04T00:46:59.744Z,75.10
2019-02-04T00:49:26.235Z,75.10
2019-02-04T00:51:52.663Z,75.20
2019-02-04T00:54:19.081Z,75.30
2019-02-04T00:56:45.490Z,75.50
2019-02-04T00:59:12.200Z,75.40
2019-02-04T01:01:38.821Z,75.30
2019-02-04T01:04:05.123Z,75.30
2019-02-04T01:06:31.545Z,75.40
2019-02-04T01:08:57.937Z,75.50
2019-02-04T01:11:24.478Z,75.40
2019-02-04T01:13:50.875Z,75.30
2019-02-04T01:16:17.274Z,75.40
2019-02-04T01:18:43.982Z,75.50
2019-02-04T01:21:10.365Z,75.30
2019-02-04T01:23:37.040Z,75.30
2019-02-04T01:26:03.475Z,75.10
2019-02-04T01:28:29.870Z,75.30
2019-02-04T01:30:56.242Z,75.40
2019-02-04T01:33:22.765Z,75.30
2019-02-04T01:35:49.312Z,75.40
2019-02-04T01:38:15.729Z,75.50
2019-02-04T01:40:42.024Z,75.40
2019-02-04T01:43:08.913Z,75.30
2019-02-04T01:45:35.513Z,75.40
2019-02-04T01:48:02.358Z,75.30
2019-02-04T01:50:28.963Z,75.40
2019-02-04T01:52:55.560Z,75.30
2019-02-04T01:55:21.989Z,75.30
2019-02-04T01:57:50.894Z,75.30
2019-02-04T02:00:20.543Z,75.40
2019-02-04T02:02:47.333Z,75.40
2019-02-04T02:05:14.392Z,76.20
2019-02-04T02:07:40.803Z,75.60
2019-02-04T02:10:10.515Z,75.50
2019-02-04T02:12:36.853Z,75.70
2019-02-04T02:15:05.449Z,75.80
2019-02-04T02:17:31.854Z,75.70
2019-02-04T02:19:58.378Z,75.70
2019-02-04T02:22:24.681Z,75.60
2019-02-04T02:24:51.573Z,75.70
2019-02-04T02:27:18.433Z,75.60
2019-02-04T02:29:44.938Z,75.60
2019-02-04T02:32:11.373Z,75.50
2019-02-04T02:34:37.809Z,75.40
2019-02-04T02:37:04.261Z,75.50
2019-02-04T02:39:31.282Z,75.70
2019-02-04T02:41:57.684Z,75.70
2019-02-04T02:44:24.286Z,75.70
2019-02-04T02:46:50.729Z,75.60
2019-02-04T02:49:17.224Z,75.60
2019-02-04T02:51:43.619Z,75.40
2019-02-04T02:54:09.948Z,75.50
2019-02-04T02:56:36.370Z,75.40
2019-02-04T02:59:03.060Z,75.40
2019-02-04T03:01:29.824Z,75.20
2019-02-04T03:03:56.121Z,75.20
2019-02-04T03:06:22.439Z,75.10
2019-02-04T03:08:48.940Z,75.10
2019-02-04T03:11:15.753Z,75.10
2019-02-04T03:13:42.286Z,75.00
2019-02-04T03:16:08.808Z,75.10
2019-02-04T03:18:35.242Z,75.10
2019-02-04T03:21:01.757Z,75.10
2019-02-04T03:23:28.360Z,75.00
2019-02-04T03:25:54.794Z,75.00
2019-02-04T03:28:21.199Z,74.90
2019-02-04T03:30:47.647Z,75.00
2019-02-04T03:33:14.077Z,74.90
2019-02-04T03:35:41.006Z,75.00
2019-02-04T03:38:07.434Z,75.00
2019-02-04T03:40:33.833Z,75.00
2019-02-04T03:43:00.431Z,75.30
2019-02-04T03:45:26.744Z,75.10
2019-02-04T03:48:04.647Z,75.10
2019-02-04T03:50:21.516Z,75.00
2019-02-04T03:52:48.426Z,75.00
2019-02-04T03:55:15.564Z,75.10
2019-02-04T03:57:42.064Z,75.00
2019-02-04T04:00:17.835Z,75.00
2019-02-04T04:02:44.123Z,75.00
2019-02-04T04:05:10.635Z,75.00
2019-02-04T04:07:36.955Z,75.10
2019-02-04T04:10:04.966Z,75.00
2019-02-04T04:12:31.302Z,75.00
2019-02-04T04:14:57.817Z,74.90
2019-02-04T04:17:24.455Z,74.80
2019-02-04T04:19:50.749Z,74.90
2019-02-04T04:22:17.074Z,74.80
2019-02-04T04:24:43.382Z,75.70
2019-02-04T04:27:10.269Z,75.60
2019-02-04T04:29:36.696Z,75.20
2019-02-04T04:32:03.396Z,76.10
2019-02-04T04:34:30.013Z,76.30
2019-02-04T04:36:56.445Z,76.10
2019-02-04T04:39:22.746Z,75.90
2019-02-04T04:41:49.498Z,75.40
2019-02-04T04:44:16.347Z,75.10
2019-02-04T04:46:45.225Z,75.00
2019-02-04T04:49:20.926Z,74.90
2019-02-04T04:51:47.397Z,74.80
2019-02-04T04:54:13.899Z,74.60
2019-02-04T04:56:40.289Z,74.80
2019-02-04T04:59:07.331Z,74.60
2019-02-04T05:01:34.147Z,74.60
2019-02-04T05:04:01.007Z,74.60
2019-02-04T05:06:27.461Z,74.50
2019-02-04T05:08:53.990Z,74.50
2019-02-04T05:11:20.514Z,74.40
2019-02-04T05:13:47.005Z,74.40
2019-02-04T05:16:13.369Z,74.30
2019-02-04T05:18:39.664Z,74.30
2019-02-04T05:21:05.974Z,74.20
2019-02-04T05:23:32.510Z,74.20
2019-02-04T05:25:59.032Z,74.20
2019-02-04T05:28:25.554Z,74.10
2019-02-04T05:30:51.861Z,74.00
2019-02-04T05:33:18.392Z,73.90
2019-02-04T05:35:45.019Z,73.80
2019-02-04T05:38:11.817Z,73.80
2019-02-04T05:40:38.254Z,73.70
2019-02-04T05:43:05.086Z,73.70
2019-02-04T05:45:31.382Z,73.70
2019-02-04T05:47:57.892Z,73.90
2019-02-04T05:50:24.338Z,73.80
2019-02-04T05:52:50.777Z,74.10
2019-02-04T05:55:19.070Z,74.50
2019-02-04T05:57:45.590Z,74.50
2019-02-04T06:00:15.783Z,74.50
2019-02-04T06:02:42.219Z,74.40
2019-02-04T06:05:11.127Z,74.40
2019-02-04T06:07:37.655Z,74.40
2019-02-04T06:10:06.621Z,74.50
2019-02-04T06:12:35.026Z,74.40
2019-02-04T06:15:02.105Z,74.30
2019-02-04T06:17:28.725Z,74.20
2019-02-04T06:19:55.253Z,74.00
2019-02-04T06:22:21.572Z,74.00
2019-02-04T06:24:48.080Z,74.00
2019-02-04T06:27:14.543Z,74.00
2019-02-04T06:29:41.473Z,74.00
2019-02-04T06:32:07.901Z,74.10
2019-02-04T06:34:34.216Z,74.00
2019-02-04T06:37:00.776Z,73.90
2019-02-04T06:39:27.105Z,73.90
2019-02-04T06:41:53.533Z,73.80
2019-02-04T06:44:20.169Z,73.90
2019-02-04T06:46:46.482Z,73.80
2019-02-04T06:49:13.378Z,73.80
2019-02-04T06:51:39.808Z,73.80
2019-02-04T06:54:06.307Z,73.70
2019-02-04T06:56:35.840Z,73.70
2019-02-04T06:59:01.365Z,73.70
2019-02-04T07:01:27.882Z,73.50
2019-02-04T07:03:54.213Z,73.50
2019-02-04T07:06:20.608Z,73.50
2019-02-04T07:08:47.018Z,73.40
2019-02-04T07:11:13.531Z,73.50
2019-02-04T07:13:42.684Z,72.70
2019-02-04T07:16:08.544Z,71.90
2019-02-04T07:18:34.940Z,72.00
2019-02-04T07:21:01.341Z,72.10
2019-02-04T07:23:27.834Z,72.10
2019-02-04T07:25:55.079Z,72.10
2019-02-04T07:28:21.558Z,72.10
2019-02-04T07:30:47.973Z,72.00
2019-02-04T07:33:14.274Z,72.10
2019-02-04T07:35:40.589Z,72.30
2019-02-04T07:38:08.749Z,72.20
2019-02-04T07:40:35.377Z,72.20
2019-02-04T07:43:01.671Z,72.20
2019-02-04T07:45:28.459Z,72.30
2019-02-04T07:47:54.872Z,72.30
2019-02-04T07:50:21.379Z,72.30
2019-02-04T07:52:49.605Z,72.20
2019-02-04T07:55:16.003Z,72.30
2019-02-04T07:57:42.610Z,72.20
2019-02-04T08:00:18.765Z,72.30
2019-02-04T08:02:45.413Z,72.30
2019-02-04T08:05:12.048Z,72.10
2019-02-04T08:07:38.443Z,72.10
2019-02-04T08:10:08.652Z,72.20
2019-02-04T08:12:35.063Z,72.20
2019-02-04T08:15:01.375Z,72.30
2019-02-04T08:17:27.798Z,72.30
2019-02-04T08:19:54.725Z,72.30
2019-02-04T08:22:21.194Z,72.40
2019-02-04T08:24:47.845Z,72.30
2019-02-04T08:27:14.673Z,72.30
2019-02-04T08:29:41.149Z,72.80
2019-02-04T08:32:07.556Z,73.70
2019-02-04T08:34:34.101Z,73.70
2019-02-04T08:37:00.432Z,73.00
2019-02-04T08:39:27.271Z,72.70
2019-02-04T08:41:53.705Z,72.70
2019-02-04T08:44:20.021Z,72.50
2019-02-04T08:46:46.316Z,72.40
2019-02-04T08:49:12.627Z,72.20
2019-02-04T08:51:39.099Z,72.10
2019-02-04T08:54:05.774Z,72.10
2019-02-04T08:56:32.174Z,72.40
2019-02-04T08:58:58.912Z,72.10
2019-02-04T09:01:31.160Z,71.80
2019-02-04T09:04:02.376Z,71.70
2019-02-04T09:06:33.216Z,71.80
2019-02-04T09:09:06.023Z,71.60
2019-02-04T09:11:38.267Z,71.50
2019-02-04T13:37:15.410Z,73.80
2019-02-04T13:39:41.737Z,65.40
2019-02-04T13:42:08.428Z,44.80
2019-02-04T13:44:34.730Z,50.50
2019-02-04T13:47:01.760Z,53.30
2019-02-04T13:49:28.295Z,55.10
2019-02-04T13:51:57.723Z,56.10
2019-02-04T13:54:23.504Z,57.50
2019-02-04T13:56:49.828Z,57.40
2019-02-04T13:59:16.257Z,57.80
2019-02-04T14:01:42.674Z,58.50
2019-02-04T14:04:09.109Z,58.80
2019-02-04T14:06:35.742Z,59.20
2019-02-04T14:09:02.645Z,59.50
2019-02-04T14:11:29.413Z,59.70
2019-02-04T14:13:55.917Z,60.00
2019-02-04T14:16:22.334Z,60.10
2019-02-04T14:18:48.971Z,60.90
2019-02-04T14:21:15.507Z,61.30
2019-02-04T14:23:41.900Z,61.40
2019-02-04T14:26:08.312Z,61.90
2019-02-04T14:28:34.852Z,62.50
2019-02-04T14:31:01.451Z,62.80
2019-02-04T14:33:28.190Z,62.70
2019-02-04T14:35:55.105Z,62.70
2019-02-04T14:38:21.569Z,63.00
2019-02-04T14:40:48.391Z,63.20
2019-02-04T14:43:18.598Z,63.40
2019-02-04T14:46:15.723Z,63.50
2019-02-04T14:48:48.528Z,63.50
2019-02-04T14:51:27.697Z,63.40
2019-02-04T14:54:17.221Z,62.80
2019-02-04T14:56:47.430Z,62.80
2019-02-04T14:59:20.233Z,62.60
2019-02-04T15:02:05.572Z,62.60
2019-02-04T15:04:41.773Z,62.50
2019-02-04T15:07:14.654Z,62.30
2019-02-04T15:10:13.501Z,62.30
2019-02-04T15:12:49.445Z,62.10
2019-02-04T15:15:22.795Z,62.00
2019-02-04T15:17:55.910Z,62.20
2019-02-04T15:20:29.142Z,62.20
2019-02-04T15:22:59.277Z,62.40
2019-02-04T15:25:32.497Z,62.20
2019-02-04T15:28:11.308Z,62.10
2019-02-04T15:30:47.315Z,61.90
2019-02-04T15:33:37.274Z,62.30
2019-02-04T15:36:19.112Z,63.20
2019-02-04T15:38:52.216Z,62.10
2019-02-04T15:41:32.868Z,62.60
2019-02-04T15:44:03.860Z,62.80
2019-02-04T15:46:36.397Z,54.10
2019-02-04T15:49:15.029Z,57.30
2019-02-04T15:51:45.411Z,58.80
2019-02-04T15:54:11.804Z,58.90
2019-02-04T15:56:38.417Z,58.60
2019-02-04T15:59:04.950Z,58.50
2019-02-04T16:01:31.581Z,58.60
2019-02-04T16:03:57.990Z,59.10
2019-02-04T16:06:24.427Z,59.80
2019-02-04T16:08:50.882Z,59.80
2019-02-04T16:11:17.310Z,60.10
2019-02-04T16:13:43.629Z,60.40
2019-02-04T16:16:10.024Z,60.50
2019-02-04T16:18:36.554Z,60.60
2019-02-04T16:21:02.953Z,60.70
2019-02-04T16:23:29.461Z,60.90
2019-02-04T16:25:55.876Z,62.10
2019-02-04T16:28:22.297Z,62.60
2019-02-04T16:30:48.752Z,62.90
2019-02-04T16:33:15.352Z,62.80
2019-02-04T16:35:41.772Z,62.40
2019-02-04T16:38:08.290Z,62.50
2019-02-04T16:40:34.784Z,62.10
2019-02-04T16:43:01.145Z,62.00
2019-02-04T16:45:29.180Z,62.00
2019-02-04T16:47:55.737Z,62.00
2019-02-04T16:50:24.340Z,62.00
2019-02-04T16:52:50.791Z,62.10
2019-02-04T16:55:17.459Z,62.30
2019-02-04T16:57:43.788Z,61.90
2019-02-04T17:00:16.661Z,61.90
2019-02-04T17:02:43.564Z,62.10
2019-02-04T17:05:12.590Z,62.00
2019-02-04T17:07:38.997Z,61.90
2019-02-04T17:10:09.046Z,61.90
2019-02-04T17:12:36.339Z,62.20
2019-02-04T17:15:05.772Z,62.40
2019-02-04T17:17:32.334Z,62.40
2019-02-04T17:19:59.449Z,62.70
2019-02-04T17:22:25.978Z,62.10
2019-02-04T17:24:52.721Z,62.00
2019-02-04T17:27:19.087Z,62.00
2019-02-04T17:29:45.387Z,61.40
2019-02-04T17:32:12.121Z,61.40
2019-02-04T17:34:38.528Z,62.10
2019-02-04T17:37:04.949Z,61.00
2019-02-04T17:39:31.581Z,61.00
2019-02-04T17:41:57.997Z,60.80
2019-02-04T17:44:24.512Z,60.80
2019-02-04T17:46:50.804Z,60.70
2019-02-04T17:49:17.106Z,60.60
2019-02-04T17:51:43.432Z,60.70
2019-02-04T17:54:09.742Z,60.50
2019-02-04T17:56:36.153Z,60.40
2019-02-04T17:59:03.616Z,60.40
2019-02-04T18:01:30.165Z,60.40
2019-02-04T18:03:59.605Z,60.40
2019-02-04T18:06:25.896Z,60.20
2019-02-04T18:08:52.504Z,60.60
2019-02-04T18:11:19.127Z,60.50
2019-02-04T18:13:45.424Z,60.40
2019-02-04T18:16:12.561Z,60.50
2019-02-04T18:18:38.994Z,60.70
2019-02-04T18:21:05.492Z,60.70
2019-02-04T18:23:31.806Z,60.80
2019-02-04T18:25:58.325Z,60.30
2019-02-04T18:28:25.374Z,60.10
2019-02-04T18:30:51.888Z,60.10
2019-02-04T18:33:18.326Z,59.90
2019-02-04T18:35:44.842Z,59.50
2019-02-04T18:38:11.239Z,60.50
2019-02-04T18:40:37.791Z,60.90
2019-02-04T18:43:04.114Z,62.20
2019-02-04T18:45:32.409Z,61.00
2019-02-04T18:47:58.821Z,60.80
2019-02-04T18:50:25.949Z,61.60
2019-02-04T18:52:52.479Z,61.50
2019-02-04T18:55:27.175Z,62.10
2019-02-04T18:57:53.933Z,62.40
2019-02-04T19:00:22.741Z,62.40
2019-02-04T19:02:59.278Z,63.40
2019-02-04T19:05:26.887Z,59.60
2019-02-04T19:07:53.501Z,54.20
2019-02-04T19:10:21.502Z,52.10
2019-02-04T19:12:47.933Z,51.00
2019-02-04T19:15:16.145Z,49.90
2019-02-04T19:17:42.483Z,50.50
2019-02-04T19:20:12.369Z,51.40
2019-02-04T19:22:38.780Z,51.40
2019-02-04T19:25:08.417Z,51.30
2019-02-04T19:27:34.840Z,51.70
2019-02-04T19:30:01.446Z,52.40
2019-02-04T19:32:28.185Z,52.50
2019-02-04T19:34:54.738Z,52.10
2019-02-04T19:37:27.795Z,53.00
2019-02-04T19:40:00.372Z,52.50
2019-02-04T19:42:26.641Z,52.20
2019-02-04T19:44:53.039Z,51.90
2019-02-04T19:47:19.341Z,52.10
2019-02-04T19:49:45.735Z,52.30
2019-02-04T19:52:12.185Z,52.00
2019-02-04T19:54:38.489Z,52.00
2019-02-04T19:57:04.789Z,51.50
2019-02-04T19:59:31.373Z,51.60
2019-02-04T20:01:57.879Z,52.30
2019-02-04T20:04:24.313Z,52.10
2019-02-04T20:06:51.617Z,55.00
2019-02-04T20:09:17.925Z,57.50
2019-02-04T20:11:44.641Z,58.00
2019-02-04T20:14:11.055Z,57.70
2019-02-04T20:16:39.349Z,58.90
2019-02-04T20:19:05.961Z,59.20
2019-02-04T20:21:32.253Z,59.80
2019-02-04T20:23:59.049Z,59.60
2019-02-04T20:26:25.365Z,59.80
2019-02-04T20:28:51.754Z,60.20
2019-02-04T20:31:18.256Z,59.60
2019-02-04T20:33:46.451Z,59.50
2019-02-04T20:36:12.863Z,59.70
2019-02-04T20:38:40.129Z,59.40
2019-02-04T20:41:06.531Z,59.50
2019-02-04T20:43:32.932Z,59.80
2019-02-04T20:45:59.260Z,59.60
2019-02-04T20:48:25.570Z,60.30
2019-02-04T20:50:52.652Z,59.70
2019-02-04T20:53:19.715Z,60.00
2019-02-04T20:55:46.341Z,60.10
2019-02-04T20:58:12.662Z,60.10
2019-02-04T21:00:38.973Z,61.10
2019-02-04T21:03:05.875Z,60.70
2019-02-04T21:05:32.518Z,60.70
2019-02-04T21:07:59.096Z,61.50
2019-02-04T21:10:27.244Z,61.60
2019-02-04T21:12:54.184Z,60.60
2019-02-04T21:15:21.721Z,60.40
2019-02-04T21:17:48.230Z,60.40
2019-02-04T21:20:23.297Z,60.60
2019-02-04T21:22:49.697Z,61.00
2019-02-04T21:25:15.985Z,61.00
2019-02-04T21:27:42.405Z,61.50
2019-02-04T21:30:24.247Z,61.00
2019-02-04T21:32:50.621Z,61.10
2019-02-04T21:35:17.143Z,61.40
2019-02-04T21:37:43.445Z,61.20
2019-02-04T21:40:15.746Z,61.60
2019-02-04T21:42:42.805Z,61.50
2019-02-04T21:45:12.741Z,61.50
2019-02-04T21:47:39.040Z,61.30
2019-02-04T21:50:09.153Z,61.30
2019-02-04T21:52:35.569Z,61.30
2019-02-04T21:55:08.548Z,61.80
2019-02-04T21:57:32.209Z,61.50
2019-02-04T21:59:58.925Z,61.60
2019-02-04T22:02:25.628Z,61.50
2019-02-04T22:04:52.047Z,61.40
2019-02-04T22:07:18.442Z,61.40
2019-02-04T22:09:44.752Z,61.40
2019-02-04T22:12:11.257Z,61.70
2019-02-04T22:14:37.554Z,61.40
2019-02-04T22:17:03.863Z,61.60
2019-02-04T22:19:30.161Z,61.30
2019-02-04T22:21:56.501Z,61.40
2019-02-04T22:24:22.917Z,61.50
2019-02-04T22:26:49.329Z,61.50
2019-02-04T22:29:16.128Z,61.50
2019-02-04T22:31:42.927Z,61.60
2019-02-04T22:34:10.722Z,61.80
2019-02-04T22:36:37.150Z,61.70
2019-02-04T22:39:06.645Z,61.80
2019-02-04T22:41:33.259Z,61.90
2019-02-04T22:43:59.673Z,62.00
2019-02-04T22:46:26.004Z,61.90
2019-02-04T22:48:52.290Z,62.20
2019-02-04T22:51:18.584Z,62.10
2019-02-04T22:53:44.888Z,62.60
2019-02-04T22:56:11.176Z,62.40
2019-02-04T22:58:37.697Z,62.60
2019-02-04T23:01:26.285Z,62.50
2019-02-04T23:03:52.730Z,62.60
2019-02-04T23:06:19.121Z,62.50
2019-02-04T23:08:45.632Z,62.60
2019-02-04T23:11:12.134Z,62.90
2019-02-04T23:13:38.536Z,62.70
2019-02-04T23:16:05.066Z,63.40
2019-02-04T23:18:31.368Z,62.60
2019-02-04T23:20:57.685Z,62.50
2019-02-04T23:23:24.429Z,62.80
2019-02-04T23:25:50.735Z,63.00
2019-02-04T23:28:17.163Z,63.10
2019-02-04T23:30:43.768Z,63.60
2019-02-04T23:33:10.169Z,63.30
2019-02-04T23:35:36.588Z,63.60
2019-02-04T23:38:04.314Z,63.60
2019-02-04T23:40:30.621Z,63.70
2019-02-04T23:42:56.930Z,64.00
2019-02-04T23:45:23.339Z,63.80
2019-02-04T23:47:49.625Z,64.20
2019-02-04T23:50:16.438Z,64.00
2019-02-04T23:52:42.734Z,63.70
2019-02-04T23:55:10.044Z,64.30
2019-02-04T23:57:36.356Z,64.30
